sensor_id;sensor_type;location;lat;lon;timestamp;temperature;humidity
13598;DHT22;38563;54.258;12.574;2022-12-13T00:01:39;-1.90;99.90
13598;DHT22;38563;54.258;12.574;2022-12-13T00:04:06;-1.80;99.90
13598;DHT22;38563;54.258;12.574;2022-12-13T00:06:34;-1.80;99.90
13598;DHT22;38563;54.258;12.574;2022-12-13T00:09:02;-1.80;99.90
13598;DHT22;38563;54.258;12.574;2022-12-13T00:11:29;-1.80;99.90
13598;DHT22;38563;54.258;12.574;2022-12-13T00:13:57;-1.70;99.90
13598;DHT22;38563;54.258;12.574;2022-12-13T00:16:25;-1.70;99.90
13598;DHT22;38563;54.258;12.574;2022-12-13T00:18:54;-1.80;99.90
13598;DHT22;38563;54.258;12.574;2022-12-13T00:21:23;-1.90;99.90
13598;DHT22;38563;54.258;12.574;2022-12-13T00:23:50;-2.00;99.90
13598;DHT22;38563;54.258;12.574;2022-12-13T00:26:18;-2.10;99.90
13598;DHT22;38563;54.258;12.574;2022-12-13T00:28:47;-2.20;99.90
13598;DHT22;38563;54.258;12.574;2022-12-13T00:31:17;-2.30;99.90
13598;DHT22;38563;54.258;12.574;2022-12-13T00:33:44;-2.30;99.90
13598;DHT22;38563;54.258;12.574;2022-12-13T00:36:11;-2.30;99.90
13598;DHT22;38563;54.258;12.574;2022-12-13T00:38:38;-2.40;99.90
13598;DHT22;38563;54.258;12.574;2022-12-13T00:41:13;-2.50;99.90
13598;DHT22;38563;54.258;12.574;2022-12-13T00:43:40;-2.60;99.90
13598;DHT22;38563;54.258;12.574;2022-12-13T00:46:11;-2.60;99.90
13598;DHT22;38563;54.258;12.574;2022-12-13T00:48:40;-2.70;99.90
13598;DHT22;38563;54.258;12.574;2022-12-13T00:51:08;-2.80;99.90
13598;DHT22;38563;54.258;12.574;2022-12-13T00:53:35;-2.90;99.90
13598;DHT22;38563;54.258;12.574;2022-12-13T00:56:02;-2.90;99.90
13598;DHT22;38563;54.258;12.574;2022-12-13T00:58:29;-3.10;99.90
13598;DHT22;38563;54.258;12.574;2022-12-13T01:01:02;-3.20;99.90
13598;DHT22;38563;54.258;12.574;2022-12-13T01:03:29;-3.30;99.90
13598;DHT22;38563;54.258;12.574;2022-12-13T01:05:57;-3.40;99.90
13598;DHT22;38563;54.258;12.574;2022-12-13T01:08:25;-3.50;99.90
13598;DHT22;38563;54.258;12.574;2022-12-13T01:10:53;-3.50;99.90
13598;DHT22;38563;54.258;12.574;2022-12-13T01:13:20;-3.60;99.90
13598;DHT22;38563;54.258;12.574;2022-12-13T01:15:47;-3.70;99.90
13598;DHT22;38563;54.258;12.574;2022-12-13T01:18:14;-3.80;99.90
13598;DHT22;38563;54.258;12.574;2022-12-13T01:20:43;-3.90;99.90
13598;DHT22;38563;54.258;12.574;2022-12-13T01:23:11;-3.90;99.90
13598;DHT22;38563;54.258;12.574;2022-12-13T01:25:37;-3.90;99.90
13598;DHT22;38563;54.258;12.574;2022-12-13T01:28:04;-3.90;99.90
13598;DHT22;38563;54.258;12.574;2022-12-13T01:30:31;-4.00;99.90
13598;DHT22;38563;54.258;12.574;2022-12-13T01:32:58;-4.00;99.90
13598;DHT22;38563;54.258;12.574;2022-12-13T01:35:25;-4.10;99.90
13598;DHT22;38563;54.258;12.574;2022-12-13T01:37:52;-4.10;99.90
13598;DHT22;38563;54.258;12.574;2022-12-13T01:40:21;-4.20;99.90
13598;DHT22;38563;54.258;12.574;2022-12-13T01:42:48;-4.30;99.90
13598;DHT22;38563;54.258;12.574;2022-12-13T01:45:21;-4.30;99.90
13598;DHT22;38563;54.258;12.574;2022-12-13T01:47:52;-4.20;99.90
13598;DHT22;38563;54.258;12.574;2022-12-13T01:50:23;-4.20;99.90
13598;DHT22;38563;54.258;12.574;2022-12-13T01:52:52;-4.10;99.90
13598;DHT22;38563;54.258;12.574;2022-12-13T01:55:24;-4.10;99.90
13598;DHT22;38563;54.258;12.574;2022-12-13T01:57:52;-4.00;99.90
13598;DHT22;38563;54.258;12.574;2022-12-13T02:00:20;-3.90;99.90
13598;DHT22;38563;54.258;12.574;2022-12-13T02:02:47;-3.90;99.90
13598;DHT22;38563;54.258;12.574;2022-12-13T02:05:18;-3.90;99.90
13598;DHT22;38563;54.258;12.574;2022-12-13T02:07:47;-3.80;99.90
13598;DHT22;38563;54.258;12.574;2022-12-13T02:10:14;-3.70;99.90
13598;DHT22;38563;54.258;12.574;2022-12-13T02:12:42;-3.50;99.90
13598;DHT22;38563;54.258;12.574;2022-12-13T02:15:11;-3.40;99.90
13598;DHT22;38563;54.258;12.574;2022-12-13T02:17:57;-3.30;99.90
13598;DHT22;38563;54.258;12.574;2022-12-13T02:20:47;-3.30;99.90
13598;DHT22;38563;54.258;12.574;2022-12-13T02:32:27;-3.30;99.90
13598;DHT22;38563;54.258;12.574;2022-12-13T02:34:59;-3.40;99.90
13598;DHT22;38563;54.258;12.574;2022-12-13T02:37:31;-3.30;99.90
13598;DHT22;38563;54.258;12.574;2022-12-13T02:40:06;-3.20;99.90
13598;DHT22;38563;54.258;12.574;2022-12-13T02:42:37;-3.10;99.90
13598;DHT22;38563;54.258;12.574;2022-12-13T02:45:08;-3.10;99.90
13598;DHT22;38563;54.258;12.574;2022-12-13T02:47:40;-3.00;99.90
13598;DHT22;38563;54.258;12.574;2022-12-13T02:50:09;-2.90;99.90
13598;DHT22;38563;54.258;12.574;2022-12-13T02:52:38;-2.90;99.90
13598;DHT22;38563;54.258;12.574;2022-12-13T02:55:08;-2.70;99.90
13598;DHT22;38563;54.258;12.574;2022-12-13T02:57:39;-2.60;99.90
13598;DHT22;38563;54.258;12.574;2022-12-13T03:00:08;-2.60;99.90
13598;DHT22;38563;54.258;12.574;2022-12-13T03:02:48;-2.70;99.90
13598;DHT22;38563;54.258;12.574;2022-12-13T03:05:26;-2.70;99.90
13598;DHT22;38563;54.258;12.574;2022-12-13T03:08:20;-2.70;99.90
13598;DHT22;38563;54.258;12.574;2022-12-13T03:10:54;-2.80;99.90
13598;DHT22;38563;54.258;12.574;2022-12-13T03:13:26;-2.80;99.90
13598;DHT22;38563;54.258;12.574;2022-12-13T03:16:08;-2.80;99.90
13598;DHT22;38563;54.258;12.574;2022-12-13T03:18:37;-2.80;99.90
13598;DHT22;38563;54.258;12.574;2022-12-13T03:21:07;-2.80;99.90
13598;DHT22;38563;54.258;12.574;2022-12-13T03:23:35;-2.70;99.90
13598;DHT22;38563;54.258;12.574;2022-12-13T03:26:05;-2.70;99.90
13598;DHT22;38563;54.258;12.574;2022-12-13T03:28:34;-2.60;99.90
13598;DHT22;38563;54.258;12.574;2022-12-13T03:31:01;-2.60;99.90
13598;DHT22;38563;54.258;12.574;2022-12-13T03:33:27;-2.70;99.90
13598;DHT22;38563;54.258;12.574;2022-12-13T03:35:56;-2.70;99.90
13598;DHT22;38563;54.258;12.574;2022-12-13T03:38:23;-2.70;99.90
13598;DHT22;38563;54.258;12.574;2022-12-13T03:40:52;-2.80;99.90
13598;DHT22;38563;54.258;12.574;2022-12-13T03:43:21;-2.80;99.90
13598;DHT22;38563;54.258;12.574;2022-12-13T03:45:48;-2.80;99.90
13598;DHT22;38563;54.258;12.574;2022-12-13T03:48:16;-2.70;99.90
13598;DHT22;38563;54.258;12.574;2022-12-13T03:50:42;-2.80;99.90
13598;DHT22;38563;54.258;12.574;2022-12-13T03:53:10;-2.80;99.90
13598;DHT22;38563;54.258;12.574;2022-12-13T03:55:37;-2.70;99.90
13598;DHT22;38563;54.258;12.574;2022-12-13T03:58:04;-2.70;99.90
13598;DHT22;38563;54.258;12.574;2022-12-13T04:00:30;-2.70;99.90
13598;DHT22;38563;54.258;12.574;2022-12-13T04:02:57;-2.70;99.90
13598;DHT22;38563;54.258;12.574;2022-12-13T04:05:24;-2.70;99.90
13598;DHT22;38563;54.258;12.574;2022-12-13T04:07:50;-2.70;99.90
13598;DHT22;38563;54.258;12.574;2022-12-13T04:10:18;-2.60;99.90
13598;DHT22;38563;54.258;12.574;2022-12-13T04:12:45;-2.60;99.90
13598;DHT22;38563;54.258;12.574;2022-12-13T04:15:29;-2.60;99.90
13598;DHT22;38563;54.258;12.574;2022-12-13T04:17:56;-2.60;99.90
13598;DHT22;38563;54.258;12.574;2022-12-13T04:20:22;-2.60;99.90
13598;DHT22;38563;54.258;12.574;2022-12-13T04:22:49;-2.60;99.90
13598;DHT22;38563;54.258;12.574;2022-12-13T04:25:17;-2.50;99.90
13598;DHT22;38563;54.258;12.574;2022-12-13T04:27:44;-2.50;99.90
13598;DHT22;38563;54.258;12.574;2022-12-13T04:30:12;-2.50;99.90
13598;DHT22;38563;54.258;12.574;2022-12-13T04:32:38;-2.50;99.90
13598;DHT22;38563;54.258;12.574;2022-12-13T04:35:06;-2.50;99.90
13598;DHT22;38563;54.258;12.574;2022-12-13T04:37:32;-2.50;99.90
13598;DHT22;38563;54.258;12.574;2022-12-13T04:39:59;-2.50;99.90
13598;DHT22;38563;54.258;12.574;2022-12-13T04:42:27;-2.40;99.90
13598;DHT22;38563;54.258;12.574;2022-12-13T04:44:54;-2.40;99.90
13598;DHT22;38563;54.258;12.574;2022-12-13T04:47:20;-2.20;99.90
13598;DHT22;38563;54.258;12.574;2022-12-13T04:49:47;-2.10;99.90
13598;DHT22;38563;54.258;12.574;2022-12-13T04:52:14;-2.00;99.90
13598;DHT22;38563;54.258;12.574;2022-12-13T04:54:41;-1.90;99.90
13598;DHT22;38563;54.258;12.574;2022-12-13T04:57:09;-1.80;99.90
13598;DHT22;38563;54.258;12.574;2022-12-13T04:59:38;-1.70;99.90
13598;DHT22;38563;54.258;12.574;2022-12-13T05:02:06;-1.70;99.90
13598;DHT22;38563;54.258;12.574;2022-12-13T05:04:33;-1.60;99.90
13598;DHT22;38563;54.258;12.574;2022-12-13T05:07:00;-1.60;99.90
13598;DHT22;38563;54.258;12.574;2022-12-13T05:09:27;-1.50;99.90
13598;DHT22;38563;54.258;12.574;2022-12-13T05:11:54;-1.40;99.90
13598;DHT22;38563;54.258;12.574;2022-12-13T05:14:20;-1.40;99.90
13598;DHT22;38563;54.258;12.574;2022-12-13T05:16:49;-1.40;99.90
13598;DHT22;38563;54.258;12.574;2022-12-13T05:19:15;-1.40;99.90
13598;DHT22;38563;54.258;12.574;2022-12-13T05:21:42;-1.40;99.90
13598;DHT22;38563;54.258;12.574;2022-12-13T05:24:09;-1.40;99.90
13598;DHT22;38563;54.258;12.574;2022-12-13T05:26:36;-1.40;99.90
13598;DHT22;38563;54.258;12.574;2022-12-13T05:29:02;-1.30;99.90
13598;DHT22;38563;54.258;12.574;2022-12-13T05:31:29;-1.30;99.90
13598;DHT22;38563;54.258;12.574;2022-12-13T05:33:57;-1.30;99.90
13598;DHT22;38563;54.258;12.574;2022-12-13T05:36:24;-1.30;99.90
13598;DHT22;38563;54.258;12.574;2022-12-13T05:38:51;-1.40;99.90
13598;DHT22;38563;54.258;12.574;2022-12-13T05:41:20;-1.40;99.90
13598;DHT22;38563;54.258;12.574;2022-12-13T05:43:48;-1.40;99.90
13598;DHT22;38563;54.258;12.574;2022-12-13T05:46:14;-1.40;99.90
13598;DHT22;38563;54.258;12.574;2022-12-13T05:48:41;-1.40;99.90
13598;DHT22;38563;54.258;12.574;2022-12-13T05:51:09;-1.40;99.90
13598;DHT22;38563;54.258;12.574;2022-12-13T05:53:36;-1.40;99.90
13598;DHT22;38563;54.258;12.574;2022-12-13T05:56:03;-1.30;99.90
13598;DHT22;38563;54.258;12.574;2022-12-13T05:58:30;-1.30;99.90
13598;DHT22;38563;54.258;12.574;2022-12-13T06:01:03;-1.40;99.90
13598;DHT22;38563;54.258;12.574;2022-12-13T06:03:30;-1.40;99.90
13598;DHT22;38563;54.258;12.574;2022-12-13T06:05:59;-1.40;99.90
13598;DHT22;38563;54.258;12.574;2022-12-13T06:08:28;-1.40;99.90
13598;DHT22;38563;54.258;12.574;2022-12-13T06:10:55;-1.40;99.90
13598;DHT22;38563;54.258;12.574;2022-12-13T06:13:22;-1.40;99.90
13598;DHT22;38563;54.258;12.574;2022-12-13T06:15:49;-1.40;99.90
13598;DHT22;38563;54.258;12.574;2022-12-13T06:18:15;-1.50;99.90
13598;DHT22;38563;54.258;12.574;2022-12-13T06:20:42;-1.50;99.90
13598;DHT22;38563;54.258;12.574;2022-12-13T06:23:09;-1.40;99.90
13598;DHT22;38563;54.258;12.574;2022-12-13T06:25:37;-1.40;99.90
13598;DHT22;38563;54.258;12.574;2022-12-13T06:28:04;-1.40;99.90
13598;DHT22;38563;54.258;12.574;2022-12-13T06:30:31;-1.40;99.90
13598;DHT22;38563;54.258;12.574;2022-12-13T06:32:57;-1.30;99.90
13598;DHT22;38563;54.258;12.574;2022-12-13T06:35:24;-1.30;99.90
13598;DHT22;38563;54.258;12.574;2022-12-13T06:37:51;-1.20;99.90
13598;DHT22;38563;54.258;12.574;2022-12-13T06:40:18;-1.20;99.90
13598;DHT22;38563;54.258;12.574;2022-12-13T06:42:46;-1.20;99.90
13598;DHT22;38563;54.258;12.574;2022-12-13T06:45:13;-1.20;99.90
13598;DHT22;38563;54.258;12.574;2022-12-13T06:47:40;-1.30;99.90
13598;DHT22;38563;54.258;12.574;2022-12-13T06:50:07;-1.30;99.90
13598;DHT22;38563;54.258;12.574;2022-12-13T06:52:34;-1.30;99.90
13598;DHT22;38563;54.258;12.574;2022-12-13T06:55:00;-1.40;99.90
13598;DHT22;38563;54.258;12.574;2022-12-13T06:57:27;-1.40;99.90
13598;DHT22;38563;54.258;12.574;2022-12-13T06:59:55;-1.40;99.90
13598;DHT22;38563;54.258;12.574;2022-12-13T07:02:22;-1.40;99.90
13598;DHT22;38563;54.258;12.574;2022-12-13T07:04:49;-1.50;99.90
13598;DHT22;38563;54.258;12.574;2022-12-13T07:07:15;-1.50;99.90
13598;DHT22;38563;54.258;12.574;2022-12-13T07:09:42;-1.50;99.90
13598;DHT22;38563;54.258;12.574;2022-12-13T07:12:09;-1.60;99.90
13598;DHT22;38563;54.258;12.574;2022-12-13T07:14:35;-1.60;99.90
13598;DHT22;38563;54.258;12.574;2022-12-13T07:17:03;-1.70;99.90
13598;DHT22;38563;54.258;12.574;2022-12-13T07:19:30;-1.80;99.90
13598;DHT22;38563;54.258;12.574;2022-12-13T07:21:57;-1.70;99.90
13598;DHT22;38563;54.258;12.574;2022-12-13T07:24:24;-1.70;99.90
13598;DHT22;38563;54.258;12.574;2022-12-13T07:26:50;-1.70;99.90
13598;DHT22;38563;54.258;12.574;2022-12-13T07:29:17;-1.60;99.90
13598;DHT22;38563;54.258;12.574;2022-12-13T07:31:44;-1.60;99.90
13598;DHT22;38563;54.258;12.574;2022-12-13T07:34:12;-1.60;99.90
13598;DHT22;38563;54.258;12.574;2022-12-13T07:36:39;-1.60;99.90
13598;DHT22;38563;54.258;12.574;2022-12-13T07:39:05;-1.60;99.90
13598;DHT22;38563;54.258;12.574;2022-12-13T07:41:32;-1.60;99.90
13598;DHT22;38563;54.258;12.574;2022-12-13T07:43:59;-1.70;99.90
13598;DHT22;38563;54.258;12.574;2022-12-13T07:46:26;-1.70;99.90
13598;DHT22;38563;54.258;12.574;2022-12-13T07:48:53;-1.70;99.90
13598;DHT22;38563;54.258;12.574;2022-12-13T07:51:21;-1.70;99.90
13598;DHT22;38563;54.258;12.574;2022-12-13T07:53:48;-1.60;99.90
13598;DHT22;38563;54.258;12.574;2022-12-13T07:56:15;-1.70;99.90
13598;DHT22;38563;54.258;12.574;2022-12-13T07:58:42;-1.70;99.90
13598;DHT22;38563;54.258;12.574;2022-12-13T08:01:10;-1.80;99.90
13598;DHT22;38563;54.258;12.574;2022-12-13T08:03:37;-1.80;99.90
13598;DHT22;38563;54.258;12.574;2022-12-13T08:06:06;-1.80;99.90
13598;DHT22;38563;54.258;12.574;2022-12-13T08:08:35;-1.80;99.90
13598;DHT22;38563;54.258;12.574;2022-12-13T08:11:02;-1.80;99.90
13598;DHT22;38563;54.258;12.574;2022-12-13T08:13:30;-1.90;99.90
13598;DHT22;38563;54.258;12.574;2022-12-13T08:15:57;-1.90;99.90
13598;DHT22;38563;54.258;12.574;2022-12-13T08:18:25;-1.90;99.90
13598;DHT22;38563;54.258;12.574;2022-12-13T08:20:53;-1.90;99.90
13598;DHT22;38563;54.258;12.574;2022-12-13T08:23:23;-1.90;99.90
13598;DHT22;38563;54.258;12.574;2022-12-13T08:25:52;-1.80;99.90
13598;DHT22;38563;54.258;12.574;2022-12-13T08:28:20;-1.70;99.90
13598;DHT22;38563;54.258;12.574;2022-12-13T08:30:47;-1.70;99.90
13598;DHT22;38563;54.258;12.574;2022-12-13T08:33:15;-1.80;99.90
13598;DHT22;38563;54.258;12.574;2022-12-13T08:35:42;-1.80;99.90
13598;DHT22;38563;54.258;12.574;2022-12-13T08:38:08;-1.80;99.90
13598;DHT22;38563;54.258;12.574;2022-12-13T08:40:36;-1.80;99.90
13598;DHT22;38563;54.258;12.574;2022-12-13T08:43:04;-1.80;99.90
13598;DHT22;38563;54.258;12.574;2022-12-13T08:45:31;-1.80;99.90
13598;DHT22;38563;54.258;12.574;2022-12-13T08:47:59;-1.80;99.90
13598;DHT22;38563;54.258;12.574;2022-12-13T08:50:27;-1.90;99.90
13598;DHT22;38563;54.258;12.574;2022-12-13T08:52:54;-1.90;99.90
13598;DHT22;38563;54.258;12.574;2022-12-13T08:55:20;-1.90;99.90
13598;DHT22;38563;54.258;12.574;2022-12-13T08:57:47;-1.90;99.90
13598;DHT22;38563;54.258;12.574;2022-12-13T09:00:17;-2.00;99.90
13598;DHT22;38563;54.258;12.574;2022-12-13T09:02:44;-2.10;99.90
13598;DHT22;38563;54.258;12.574;2022-12-13T09:05:11;-2.10;99.90
13598;DHT22;38563;54.258;12.574;2022-12-13T09:07:38;-2.20;99.90
13598;DHT22;38563;54.258;12.574;2022-12-13T09:10:06;-2.20;99.90
13598;DHT22;38563;54.258;12.574;2022-12-13T09:12:33;-2.20;99.90
13598;DHT22;38563;54.258;12.574;2022-12-13T09:15:00;-2.20;99.90
13598;DHT22;38563;54.258;12.574;2022-12-13T09:17:29;-2.30;99.90
13598;DHT22;38563;54.258;12.574;2022-12-13T09:19:57;-2.30;99.90
13598;DHT22;38563;54.258;12.574;2022-12-13T09:22:24;-2.40;99.90
13598;DHT22;38563;54.258;12.574;2022-12-13T09:24:51;-2.40;99.90
13598;DHT22;38563;54.258;12.574;2022-12-13T09:27:18;-2.40;99.90
13598;DHT22;38563;54.258;12.574;2022-12-13T09:29:45;-2.40;99.90
13598;DHT22;38563;54.258;12.574;2022-12-13T09:32:12;-2.40;99.90
13598;DHT22;38563;54.258;12.574;2022-12-13T09:34:40;-2.20;99.90
13598;DHT22;38563;54.258;12.574;2022-12-13T09:37:07;-2.10;99.90
13598;DHT22;38563;54.258;12.574;2022-12-13T09:39:36;-2.10;99.90
13598;DHT22;38563;54.258;12.574;2022-12-13T09:42:03;-2.00;99.90
13598;DHT22;38563;54.258;12.574;2022-12-13T09:44:33;-2.00;99.90
13598;DHT22;38563;54.258;12.574;2022-12-13T09:47:02;-1.90;99.90
13598;DHT22;38563;54.258;12.574;2022-12-13T09:49:33;-1.80;99.90
13598;DHT22;38563;54.258;12.574;2022-12-13T09:52:04;-1.80;99.90
13598;DHT22;38563;54.258;12.574;2022-12-13T09:54:32;-1.80;99.90
13598;DHT22;38563;54.258;12.574;2022-12-13T09:56:59;-1.80;99.90
13598;DHT22;38563;54.258;12.574;2022-12-13T09:59:27;-1.90;99.90
13598;DHT22;38563;54.258;12.574;2022-12-13T10:01:56;-1.90;99.90
13598;DHT22;38563;54.258;12.574;2022-12-13T10:04:28;-1.90;99.90
13598;DHT22;38563;54.258;12.574;2022-12-13T10:06:55;-1.90;99.90
13598;DHT22;38563;54.258;12.574;2022-12-13T10:09:25;-1.80;99.90
13598;DHT22;38563;54.258;12.574;2022-12-13T10:11:53;-1.90;99.90
13598;DHT22;38563;54.258;12.574;2022-12-13T10:14:24;-1.90;99.90
13598;DHT22;38563;54.258;12.574;2022-12-13T10:16:53;-1.90;99.90
13598;DHT22;38563;54.258;12.574;2022-12-13T10:19:25;-1.90;99.90
13598;DHT22;38563;54.258;12.574;2022-12-13T10:21:53;-2.00;99.90
13598;DHT22;38563;54.258;12.574;2022-12-13T10:24:22;-2.20;99.90
13598;DHT22;38563;54.258;12.574;2022-12-13T10:26:51;-2.50;99.90
13598;DHT22;38563;54.258;12.574;2022-12-13T10:29:18;-2.70;99.90
13598;DHT22;38563;54.258;12.574;2022-12-13T10:31:46;-2.80;99.90
13598;DHT22;38563;54.258;12.574;2022-12-13T10:34:20;-2.90;99.90
13598;DHT22;38563;54.258;12.574;2022-12-13T10:36:47;-3.10;99.90
13598;DHT22;38563;54.258;12.574;2022-12-13T10:39:17;-3.30;99.90
13598;DHT22;38563;54.258;12.574;2022-12-13T10:41:44;-3.50;99.90
13598;DHT22;38563;54.258;12.574;2022-12-13T10:44:21;-3.50;99.90
13598;DHT22;38563;54.258;12.574;2022-12-13T10:47:02;-3.40;99.90
13598;DHT22;38563;54.258;12.574;2022-12-13T10:49:37;-3.30;99.90
13598;DHT22;38563;54.258;12.574;2022-12-13T10:52:17;-3.20;99.90
13598;DHT22;38563;54.258;12.574;2022-12-13T10:54:47;-3.00;99.90
13598;DHT22;38563;54.258;12.574;2022-12-13T10:57:15;-2.90;99.90
13598;DHT22;38563;54.258;12.574;2022-12-13T10:59:45;-2.80;99.90
13598;DHT22;38563;54.258;12.574;2022-12-13T11:02:33;-2.70;99.90
13598;DHT22;38563;54.258;12.574;2022-12-13T11:05:22;-2.60;99.90
13598;DHT22;38563;54.258;12.574;2022-12-13T11:07:49;-2.40;99.90
13598;DHT22;38563;54.258;12.574;2022-12-13T11:10:20;-2.30;99.90
13598;DHT22;38563;54.258;12.574;2022-12-13T11:12:48;-2.20;99.90
13598;DHT22;38563;54.258;12.574;2022-12-13T11:15:19;-2.20;99.90
13598;DHT22;38563;54.258;12.574;2022-12-13T11:17:50;-2.10;99.90
13598;DHT22;38563;54.258;12.574;2022-12-13T11:20:20;-2.10;99.90
13598;DHT22;38563;54.258;12.574;2022-12-13T11:22:58;-2.00;99.90
13598;DHT22;38563;54.258;12.574;2022-12-13T11:25:29;-2.00;99.90
13598;DHT22;38563;54.258;12.574;2022-12-13T11:28:10;-1.90;99.90
13598;DHT22;38563;54.258;12.574;2022-12-13T11:30:44;-1.90;99.90
13598;DHT22;38563;54.258;12.574;2022-12-13T11:33:19;-1.90;99.90
13598;DHT22;38563;54.258;12.574;2022-12-13T11:36:04;-1.90;99.90
13598;DHT22;38563;54.258;12.574;2022-12-13T11:38:40;-1.80;99.90
13598;DHT22;38563;54.258;12.574;2022-12-13T11:41:16;-1.80;99.90
13598;DHT22;38563;54.258;12.574;2022-12-13T11:43:48;-1.80;99.90
13598;DHT22;38563;54.258;12.574;2022-12-13T11:46:23;-1.80;99.90
13598;DHT22;38563;54.258;12.574;2022-12-13T11:48:56;-1.90;99.90
13598;DHT22;38563;54.258;12.574;2022-12-13T11:51:27;-1.90;99.90
13598;DHT22;38563;54.258;12.574;2022-12-13T11:54:00;-2.00;99.90
13598;DHT22;38563;54.258;12.574;2022-12-13T11:56:31;-2.00;99.90
13598;DHT22;38563;54.258;12.574;2022-12-13T11:59:08;-2.00;99.90
13598;DHT22;38563;54.258;12.574;2022-12-13T12:01:45;-1.90;99.90
13598;DHT22;38563;54.258;12.574;2022-12-13T12:04:18;-1.70;99.90
13598;DHT22;38563;54.258;12.574;2022-12-13T12:06:53;-1.60;99.90
13598;DHT22;38563;54.258;12.574;2022-12-13T12:09:23;-1.50;99.90
13598;DHT22;38563;54.258;12.574;2022-12-13T12:11:56;-1.40;99.90
13598;DHT22;38563;54.258;12.574;2022-12-13T12:14:34;-1.20;99.90
13598;DHT22;38563;54.258;12.574;2022-12-13T12:17:04;-1.10;99.90
13598;DHT22;38563;54.258;12.574;2022-12-13T12:19:35;-1.00;99.90
13598;DHT22;38563;54.258;12.574;2022-12-13T12:22:16;-1.00;99.90
13598;DHT22;38563;54.258;12.574;2022-12-13T12:24:59;-0.90;99.90
13598;DHT22;38563;54.258;12.574;2022-12-13T12:27:34;-0.80;99.90
13598;DHT22;38563;54.258;12.574;2022-12-13T12:30:11;-0.70;99.90
13598;DHT22;38563;54.258;12.574;2022-12-13T12:32:46;-0.60;99.90
13598;DHT22;38563;54.258;12.574;2022-12-13T12:35:33;-0.50;99.90
13598;DHT22;38563;54.258;12.574;2022-12-13T12:38:13;-0.50;99.90
13598;DHT22;38563;54.258;12.574;2022-12-13T12:41:02;-0.50;99.90
13598;DHT22;38563;54.258;12.574;2022-12-13T12:43:36;-0.50;99.90
13598;DHT22;38563;54.258;12.574;2022-12-13T12:46:16;-0.40;99.90
13598;DHT22;38563;54.258;12.574;2022-12-13T12:49:09;-0.40;99.90
13598;DHT22;38563;54.258;12.574;2022-12-13T12:51:46;-0.40;99.90
13598;DHT22;38563;54.258;12.574;2022-12-13T12:54:30;-0.30;99.90
13598;DHT22;38563;54.258;12.574;2022-12-13T12:57:04;-0.30;99.90
13598;DHT22;38563;54.258;12.574;2022-12-13T12:59:43;-0.30;99.90
13598;DHT22;38563;54.258;12.574;2022-12-13T13:02:16;-0.30;99.90
13598;DHT22;38563;54.258;12.574;2022-12-13T13:04:49;-0.30;99.90
13598;DHT22;38563;54.258;12.574;2022-12-13T13:07:20;-0.40;99.90
13598;DHT22;38563;54.258;12.574;2022-12-13T13:09:49;-0.40;99.90
13598;DHT22;38563;54.258;12.574;2022-12-13T13:12:16;-0.40;99.90
13598;DHT22;38563;54.258;12.574;2022-12-13T13:14:44;-0.30;99.90
13598;DHT22;38563;54.258;12.574;2022-12-13T13:17:45;-0.30;99.90
13598;DHT22;38563;54.258;12.574;2022-12-13T13:20:19;-0.30;99.90
13598;DHT22;38563;54.258;12.574;2022-12-13T13:22:48;-0.40;99.90
13598;DHT22;38563;54.258;12.574;2022-12-13T13:25:21;-0.40;99.90
13598;DHT22;38563;54.258;12.574;2022-12-13T13:27:51;-0.40;99.90
13598;DHT22;38563;54.258;12.574;2022-12-13T13:30:26;-0.40;99.90
13598;DHT22;38563;54.258;12.574;2022-12-13T13:32:54;-0.40;99.90
13598;DHT22;38563;54.258;12.574;2022-12-13T13:35:45;-0.40;99.90
13598;DHT22;38563;54.258;12.574;2022-12-13T13:41:53;-0.40;99.90
13598;DHT22;38563;54.258;12.574;2022-12-13T13:47:14;-0.50;99.90
13598;DHT22;38563;54.258;12.574;2022-12-13T13:49:51;-0.50;99.90
13598;DHT22;38563;54.258;12.574;2022-12-13T13:52:22;-0.60;99.90
13598;DHT22;38563;54.258;12.574;2022-12-13T13:55:12;-0.60;99.90
13598;DHT22;38563;54.258;12.574;2022-12-13T13:58:08;-0.60;99.90
13598;DHT22;38563;54.258;12.574;2022-12-13T14:01:05;-0.60;99.90
13598;DHT22;38563;54.258;12.574;2022-12-13T14:04:04;-0.70;99.90
13598;DHT22;38563;54.258;12.574;2022-12-13T14:10:14;-0.70;99.90
13598;DHT22;38563;54.258;12.574;2022-12-13T14:13:27;-0.80;99.90
13598;DHT22;38563;54.258;12.574;2022-12-13T14:16:36;-0.70;99.90
13598;DHT22;38563;54.258;12.574;2022-12-13T14:22:33;-0.80;99.90
13598;DHT22;38563;54.258;12.574;2022-12-13T14:25:28;-0.80;99.90
13598;DHT22;38563;54.258;12.574;2022-12-13T14:28:02;-0.80;99.90
13598;DHT22;38563;54.258;12.574;2022-12-13T14:30:30;-0.80;99.90
13598;DHT22;38563;54.258;12.574;2022-12-13T14:32:57;-0.80;99.90
13598;DHT22;38563;54.258;12.574;2022-12-13T14:35:26;-0.80;99.90
13598;DHT22;38563;54.258;12.574;2022-12-13T14:37:59;-0.80;99.90
13598;DHT22;38563;54.258;12.574;2022-12-13T14:40:30;-0.80;99.90
13598;DHT22;38563;54.258;12.574;2022-12-13T14:42:58;-0.80;99.90
13598;DHT22;38563;54.258;12.574;2022-12-13T14:45:26;-0.80;99.90
13598;DHT22;38563;54.258;12.574;2022-12-13T14:47:56;-0.80;99.90
13598;DHT22;38563;54.258;12.574;2022-12-13T14:50:24;-0.80;99.90
13598;DHT22;38563;54.258;12.574;2022-12-13T14:52:52;-0.80;99.90
13598;DHT22;38563;54.258;12.574;2022-12-13T14:55:24;-0.80;99.90
13598;DHT22;38563;54.258;12.574;2022-12-13T14:57:53;-0.80;99.90
13598;DHT22;38563;54.258;12.574;2022-12-13T15:00:24;-0.90;99.90
13598;DHT22;38563;54.258;12.574;2022-12-13T15:02:52;-0.80;99.90
13598;DHT22;38563;54.258;12.574;2022-12-13T15:05:25;-0.90;99.90
13598;DHT22;38563;54.258;12.574;2022-12-13T15:07:52;-0.80;99.90
13598;DHT22;38563;54.258;12.574;2022-12-13T15:10:23;-0.80;99.90
13598;DHT22;38563;54.258;12.574;2022-12-13T15:12:52;-0.80;99.90
13598;DHT22;38563;54.258;12.574;2022-12-13T15:15:23;-0.80;99.90
13598;DHT22;38563;54.258;12.574;2022-12-13T15:18:14;-0.80;99.90
13598;DHT22;38563;54.258;12.574;2022-12-13T15:20:48;-0.80;99.90
13598;DHT22;38563;54.258;12.574;2022-12-13T15:23:23;-0.80;99.90
13598;DHT22;38563;54.258;12.574;2022-12-13T15:26:01;-0.80;99.90
13598;DHT22;38563;54.258;12.574;2022-12-13T15:28:32;-0.80;99.90
13598;DHT22;38563;54.258;12.574;2022-12-13T15:31:00;-0.80;99.90
13598;DHT22;38563;54.258;12.574;2022-12-13T15:33:28;-0.80;99.90
13598;DHT22;38563;54.258;12.574;2022-12-13T15:36:05;-0.80;99.90
13598;DHT22;38563;54.258;12.574;2022-12-13T15:38:33;-0.80;99.90
13598;DHT22;38563;54.258;12.574;2022-12-13T15:41:02;-0.80;99.90
13598;DHT22;38563;54.258;12.574;2022-12-13T15:43:34;-0.80;99.90
13598;DHT22;38563;54.258;12.574;2022-12-13T15:46:02;-0.90;99.90
13598;DHT22;38563;54.258;12.574;2022-12-13T15:48:33;-0.90;99.90
13598;DHT22;38563;54.258;12.574;2022-12-13T15:51:06;-0.90;99.90
13598;DHT22;38563;54.258;12.574;2022-12-13T15:53:34;-1.00;99.90
13598;DHT22;38563;54.258;12.574;2022-12-13T15:56:01;-1.00;99.90
13598;DHT22;38563;54.258;12.574;2022-12-13T15:58:32;-1.10;99.90